Briefing drone pour Le peage-de-roussillon

Rechercher une autre localisation

Conditions de vol :


Nous sommes le : Mardi 27 juillet 2021
Il est 15:38 UTC (17:38 LT)

Lever de soleil : 03:53 UTC (05:53 LT)
Coucher de soleil : 19:41 UTC (21:41 LT)

Météo

L'essentiel des conditions de vol

VIGILANCE MÉTÉO FRANCE - Isère (38)
Vigilance Jaune : Orages
METAR de LFMH
LFMH 271530Z AUTO 36007KT 310V020 CAVOK 25/14 Q1014

Date d'émission: 27/07/2021
Heure d'émission: 15:30 UTC
Vent: 360° (variable du 310° au 020°) pour 7 KT (13 km/h)
Visibilité horizontale: > 10 km
Plafond : Plafond et visibilité OK (CAVOK)
Température: 25 °C
Point de rosée: 14 °C
Humidité: 50%
Pression (QNH): 1014 hPa
TAF de LFMH
LFMH 161901Z 1619/1712 CNL

Conditions prévues :

Heure d'émission : Bulletin éffectué le 16 à 19:00 UTC
Prévision : Valide du 16 a 19:00 UTC au 17 a 12:00 UTC
Nuages : à 0ft (0 m)
WEBCAM POUR LE PEAGE-DE-ROUSSILLON

Réglementation

Voler en sécurité

CARTES AERONAUTIQUE 1/500.000
CARTES VAC (LFMH)
SUP AIP




Chargement des AIP...
NOTAM (LE PEAGE-DE-ROUSSILLON + Terrain à proximité / FIR )




Chargement des NOTAMS...
CONTACT PREFECTURE 38


Avertissement : Les données mises à disposition sont indicatives. Oxygène Drone ne pourra être tenu responsable de dégâts causés aux biens et aux personnes.